createdAt,value
2023-04-27T00:01:56.662Z,17.20
2023-04-27T00:06:59.449Z,16.50
2023-04-27T00:12:02.319Z,22.30
2023-04-27T00:17:05.077Z,18.30
2023-04-27T00:22:08.961Z,15.40
2023-04-27T00:27:13.722Z,17.30
2023-04-27T00:32:16.602Z,16.70
2023-04-27T00:37:19.711Z,19.20
2023-04-27T00:42:25.088Z,19.00
2023-04-27T00:47:30.551Z,14.20
2023-04-27T00:52:33.592Z,13.50
2023-04-27T00:57:36.366Z,15.90
2023-04-27T01:02:40.353Z,11.50
2023-04-27T01:07:43.188Z,11.70
2023-04-27T01:12:45.949Z,11.00
2023-04-27T01:17:48.789Z,18.00
2023-04-27T01:22:51.660Z,15.70
2023-04-27T01:27:54.893Z,18.30
2023-04-27T01:38:00.558Z,13.70
2023-04-27T01:43:03.575Z,19.90
2023-04-27T01:48:06.699Z,12.20
2023-04-27T01:53:09.799Z,12.60
2023-04-27T01:58:12.522Z,21.20
2023-04-27T02:03:15.386Z,12.60
2023-04-27T02:08:18.396Z,18.50
2023-04-27T02:13:21.269Z,18.10
2023-04-27T02:18:25.052Z,20.50
2023-04-27T02:23:27.830Z,15.60
2023-04-27T02:28:31.135Z,11.50
2023-04-27T02:33:34.504Z,16.60
2023-04-27T02:38:37.243Z,17.70
2023-04-27T02:43:40.084Z,21.90
2023-04-27T02:48:42.929Z,25.90
2023-04-27T02:53:45.796Z,28.60
2023-04-27T02:58:49.160Z,22.60
2023-04-27T03:03:52.139Z,19.70
2023-04-27T03:13:57.894Z,26.50
2023-04-27T03:19:00.974Z,23.00
2023-04-27T03:24:03.969Z,20.50
2023-04-27T03:29:06.744Z,18.30
2023-04-27T03:34:09.614Z,21.80
2023-04-27T03:39:12.541Z,16.00
2023-04-27T03:49:18.661Z,22.50
2023-04-27T03:54:21.677Z,59.80
2023-04-27T03:59:24.470Z,52.00
2023-04-27T04:04:27.380Z,34.30
2023-04-27T04:09:30.737Z,41.00
2023-04-27T04:14:33.509Z,41.90
2023-04-27T04:19:36.390Z,43.20
2023-04-27T04:24:40.270Z,45.00
2023-04-27T04:29:43.086Z,33.60
2023-04-27T04:34:51.991Z,39.40
2023-04-27T04:39:54.738Z,33.60
2023-04-27T04:44:58.975Z,21.30
2023-04-27T04:50:02.170Z,23.80
2023-04-27T05:00:14.883Z,22.70
2023-04-27T05:05:17.661Z,15.40
2023-04-27T05:10:20.460Z,17.50
2023-04-27T05:15:23.358Z,25.50
2023-04-27T05:20:26.107Z,25.90
2023-04-27T05:25:33.059Z,19.20
2023-04-27T05:30:36.881Z,24.10
2023-04-27T05:35:39.657Z,25.50
2023-04-27T05:40:42.442Z,16.60
2023-04-27T05:45:45.216Z,26.20
2023-04-27T05:50:48.089Z,26.20
2023-04-27T05:55:58.130Z,19.00
2023-04-27T06:01:01.758Z,20.30
2023-04-27T06:06:04.927Z,23.10
2023-04-27T06:16:10.734Z,38.50
2023-04-27T06:21:13.548Z,39.30
2023-04-27T06:26:17.911Z,42.70
2023-04-27T06:31:20.858Z,38.80
2023-04-27T06:36:26.930Z,11.90
2023-04-27T06:41:29.765Z,13.20
2023-04-27T06:46:32.724Z,7.50
2023-04-27T06:51:35.889Z,11.70
2023-04-27T06:56:38.725Z,9.60
2023-04-27T07:01:41.591Z,11.80
2023-04-27T07:06:44.374Z,11.00
2023-04-27T07:11:47.254Z,6.70
2023-04-27T07:16:50.037Z,11.70
2023-04-27T07:21:52.773Z,10.00
2023-04-27T07:26:57.727Z,12.40
2023-04-27T07:32:00.495Z,12.30
2023-04-27T07:37:03.360Z,6.00
2023-04-27T07:42:06.305Z,5.80
2023-04-27T07:47:09.238Z,9.00
2023-04-27T07:52:12.673Z,4.50
2023-04-27T07:57:15.692Z,14.10
2023-04-27T08:02:20.379Z,8.70
2023-04-27T08:07:24.086Z,13.70
2023-04-27T08:12:27.087Z,9.70
2023-04-27T08:17:29.923Z,8.60
2023-04-27T08:22:32.881Z,8.70
2023-04-27T08:27:42.917Z,9.50
2023-04-27T08:32:45.895Z,12.20
2023-04-27T08:37:49.072Z,8.30
2023-04-27T08:42:56.959Z,6.60
2023-04-27T08:48:00.117Z,10.20
2023-04-27T08:53:03.464Z,9.70
2023-04-27T08:58:10.996Z,5.40
2023-04-27T09:03:29.797Z,8.90
2023-04-27T09:08:45.686Z,11.20
2023-04-27T09:13:51.060Z,8.90
2023-04-27T09:18:55.755Z,7.70
2023-04-27T09:24:14.837Z,12.20
2023-04-27T09:29:18.132Z,15.30
2023-04-27T09:34:21.093Z,9.90
2023-04-27T09:39:23.954Z,10.10
2023-04-27T09:44:28.735Z,12.60
2023-04-27T09:49:34.598Z,10.60
2023-04-27T09:54:37.657Z,8.90
2023-04-27T10:05:13.958Z,8.60
2023-04-27T10:10:18.695Z,9.70
2023-04-27T10:15:29.916Z,6.40
2023-04-27T10:20:37.540Z,7.00
2023-04-27T10:25:41.947Z,14.40
2023-04-27T10:30:48.517Z,10.80
2023-04-27T10:35:58.978Z,10.20
2023-04-27T10:41:05.260Z,9.30
2023-04-27T10:46:10.787Z,7.00
2023-04-27T10:51:18.032Z,14.00
2023-04-27T10:56:21.072Z,9.00
2023-04-27T11:01:27.070Z,10.30
2023-04-27T11:06:32.545Z,7.00
2023-04-27T11:11:35.403Z,8.10
2023-04-27T11:16:46.295Z,8.80
2023-04-27T11:21:49.353Z,10.20
2023-04-27T11:26:53.348Z,11.30
2023-04-27T11:31:56.300Z,7.60
2023-04-27T11:42:18.791Z,8.80
2023-04-27T11:47:22.962Z,8.60
2023-04-27T11:52:33.524Z,7.50
2023-04-27T11:57:36.798Z,10.90
2023-04-27T12:02:39.847Z,7.60
2023-04-27T12:07:43.547Z,6.80
2023-04-27T12:12:47.154Z,7.50
2023-04-27T12:17:50.994Z,10.60
2023-04-27T12:22:54.509Z,12.70
2023-04-27T12:27:57.829Z,7.10
2023-04-27T12:33:00.951Z,7.70
2023-04-27T12:38:03.775Z,6.00
2023-04-27T12:43:08.529Z,6.90
2023-04-27T12:48:11.914Z,7.20
2023-04-27T12:53:14.760Z,7.90
2023-04-27T12:58:17.579Z,9.80
2023-04-27T13:03:20.618Z,37.20
2023-04-27T13:08:23.699Z,16.90
2023-04-27T13:13:26.998Z,12.00
2023-04-27T13:18:32.865Z,749.80
2023-04-27T13:23:37.559Z,164.00
2023-04-27T13:28:41.128Z,190.30
2023-04-27T13:33:44.595Z,76.60
2023-04-27T13:38:48.262Z,21.80
2023-04-27T13:43:51.136Z,12.70
2023-04-27T13:48:53.972Z,12.90
2023-04-27T13:53:56.761Z,13.00
2023-04-27T13:59:01.347Z,15.40
2023-04-27T14:04:04.317Z,27.30
2023-04-27T14:09:07.298Z,10.10
2023-04-27T14:14:09.992Z,13.90
2023-04-27T14:19:16.013Z,16.30
2023-04-27T14:24:19.871Z,9.20
2023-04-27T14:29:23.705Z,10.30
2023-04-27T14:34:26.865Z,18.20
2023-04-27T14:44:32.276Z,12.10
2023-04-27T14:49:35.008Z,15.20
2023-04-27T14:54:38.807Z,10.20
2023-04-27T14:59:41.594Z,13.70
2023-04-27T15:04:44.405Z,49.40
2023-04-27T15:09:47.309Z,35.30
2023-04-27T15:14:51.800Z,31.10
2023-04-27T15:19:54.692Z,18.70
2023-04-27T15:24:57.525Z,8.30
2023-04-27T15:30:00.467Z,16.70
2023-04-27T15:40:08.805Z,19.10
2023-04-27T15:45:11.690Z,16.10
2023-04-27T15:50:14.501Z,10.20
2023-04-27T16:00:22.340Z,10.70
2023-04-27T16:05:25.460Z,13.20
2023-04-27T16:10:28.399Z,14.40
2023-04-27T16:15:31.183Z,22.30
2023-04-27T16:20:36.419Z,24.00
2023-04-27T16:25:39.457Z,10.40
2023-04-27T16:30:42.195Z,22.40
2023-04-27T16:35:44.981Z,32.10
2023-04-27T16:45:51.095Z,7.80
2023-04-27T16:50:55.216Z,9.70
2023-04-27T16:56:02.178Z,8.30
2023-04-27T17:01:05.095Z,10.90
2023-04-27T17:06:07.891Z,8.90
2023-04-27T17:11:11.793Z,10.40
2023-04-27T17:16:16.136Z,11.80
2023-04-27T17:21:19.548Z,9.60
2023-04-27T17:26:22.759Z,9.30
2023-04-27T17:31:28.508Z,17.00
2023-04-27T17:36:31.633Z,7.90
2023-04-27T17:46:46.531Z,11.40
2023-04-27T17:51:49.413Z,17.30
2023-04-27T17:56:52.123Z,16.60
2023-04-27T18:01:54.968Z,21.20
2023-04-27T18:06:57.772Z,19.10
2023-04-27T18:12:00.776Z,24.00
2023-04-27T18:17:03.601Z,33.80
2023-04-27T18:22:06.333Z,56.70
2023-04-27T18:27:09.170Z,49.70
2023-04-27T18:32:12.219Z,27.20
2023-04-27T18:42:20.806Z,24.50
2023-04-27T18:47:23.581Z,31.60
2023-04-27T18:52:26.560Z,129.20
2023-04-27T18:57:33.150Z,237.30
2023-04-27T19:02:35.974Z,138.50
2023-04-27T19:07:38.830Z,97.70
2023-04-27T19:12:41.685Z,114.90
2023-04-27T19:17:44.566Z,117.50
2023-04-27T19:22:47.851Z,393.80
2023-04-27T19:27:50.792Z,412.40
2023-04-27T19:32:53.547Z,307.80
2023-04-27T19:37:56.449Z,227.80
2023-04-27T19:42:59.329Z,259.10
2023-04-27T19:48:02.190Z,254.90
2023-04-27T19:53:04.995Z,231.20
2023-04-27T19:58:07.885Z,241.70
2023-04-27T20:03:12.701Z,249.80
2023-04-27T20:08:15.811Z,200.70
2023-04-27T20:13:18.570Z,160.90
2023-04-27T20:18:21.328Z,148.50
2023-04-27T20:23:24.181Z,118.30
2023-04-27T20:28:28.049Z,186.40
2023-04-27T20:33:32.823Z,138.40
2023-04-27T20:38:35.921Z,163.30
2023-04-27T20:43:40.302Z,185.80
2023-04-27T20:48:43.114Z,143.60
2023-04-27T20:53:45.931Z,154.10
2023-04-27T20:58:48.674Z,173.80
2023-04-27T21:03:52.416Z,137.80
2023-04-27T21:08:55.705Z,147.90
2023-04-27T21:13:58.536Z,131.10
2023-04-27T21:19:01.336Z,146.70
2023-04-27T21:24:08.199Z,147.00
2023-04-27T21:29:11.411Z,126.00
2023-04-27T21:34:14.436Z,86.20
2023-04-27T21:44:20.101Z,89.70
2023-04-27T21:49:22.928Z,84.00
2023-04-27T21:54:25.803Z,94.40
2023-04-27T21:59:28.515Z,122.60
2023-04-27T22:04:31.374Z,142.50
2023-04-27T22:09:35.744Z,164.10
2023-04-27T22:14:38.551Z,156.90
2023-04-27T22:19:41.641Z,142.90
2023-04-27T22:24:44.447Z,144.80
2023-04-27T22:29:47.212Z,148.50
2023-04-27T22:34:50.449Z,153.30
2023-04-27T22:44:55.829Z,131.90
2023-04-27T22:49:59.231Z,139.80
2023-04-27T22:55:02.360Z,186.90
2023-04-27T23:00:06.202Z,182.80
2023-04-27T23:05:11.043Z,231.20
2023-04-27T23:10:15.258Z,145.70
2023-04-27T23:15:18.671Z,162.50
2023-04-27T23:20:28.018Z,156.50
2023-04-27T23:25:33.235Z,127.40
2023-04-27T23:30:36.594Z,83.70
2023-04-27T23:35:39.790Z,114.40
2023-04-27T23:40:42.616Z,91.50
2023-04-27T23:45:52.770Z,111.90
2023-04-27T23:51:01.012Z,86.40
2023-04-27T23:56:03.956Z,80.70
